createdAt,value
2022-11-24T00:01:17.753Z,99.90
2022-11-24T00:03:47.290Z,99.90
2022-11-24T00:06:15.798Z,99.90
2022-11-24T00:08:45.876Z,99.90
2022-11-24T00:11:16.973Z,99.90
2022-11-24T00:13:46.500Z,99.90
2022-11-24T00:16:16.712Z,99.90
2022-11-24T00:18:47.545Z,99.90
2022-11-24T00:21:16.902Z,99.90
2022-11-24T00:23:45.263Z,99.90
2022-11-24T00:26:15.575Z,99.90
2022-11-24T00:28:44.983Z,99.90
2022-11-24T00:31:20.128Z,99.90
2022-11-24T00:33:49.740Z,99.90
2022-11-24T00:36:19.066Z,99.90
2022-11-24T00:38:47.565Z,99.90
2022-11-24T00:41:15.627Z,99.90
2022-11-24T00:43:43.696Z,99.90
2022-11-24T00:46:12.534Z,99.90
2022-11-24T00:48:42.277Z,99.90
2022-11-24T00:51:13.113Z,99.90
2022-11-24T00:53:41.677Z,99.90
2022-11-24T00:56:11.117Z,99.90
2022-11-24T00:58:39.133Z,99.90
2022-11-24T01:01:08.919Z,99.90
2022-11-24T01:03:37.108Z,99.90
2022-11-24T01:06:07.614Z,99.90
2022-11-24T01:08:37.559Z,99.90
2022-11-24T01:11:11.998Z,99.90
2022-11-24T01:13:41.046Z,99.90
2022-11-24T01:16:15.508Z,99.90
2022-11-24T01:18:43.716Z,99.90
2022-11-24T01:21:13.445Z,99.90
2022-11-24T01:23:41.821Z,99.90
2022-11-24T01:26:12.607Z,99.90
2022-11-24T01:28:46.358Z,99.90
2022-11-24T01:31:16.028Z,99.90
2022-11-24T01:33:44.288Z,99.90
2022-11-24T01:36:14.196Z,99.90
2022-11-24T01:38:42.740Z,99.90
2022-11-24T01:41:13.910Z,99.90
2022-11-24T01:43:43.225Z,99.90
2022-11-24T01:46:18.649Z,99.90
2022-11-24T01:48:50.089Z,99.90
2022-11-24T01:51:23.718Z,99.90
2022-11-24T01:53:55.811Z,99.90
2022-11-24T01:56:24.657Z,99.90
2022-11-24T01:58:56.257Z,99.90
2022-11-24T02:01:24.877Z,99.90
2022-11-24T02:03:53.980Z,99.90
2022-11-24T02:06:27.384Z,99.90
2022-11-24T02:08:59.779Z,99.90
2022-11-24T02:11:31.610Z,99.90
2022-11-24T02:14:00.554Z,99.90
2022-11-24T02:16:30.067Z,99.90
2022-11-24T02:18:58.599Z,99.90
2022-11-24T02:21:28.556Z,99.90
2022-11-24T02:24:04.898Z,99.90
2022-11-24T02:26:42.766Z,99.90
2022-11-24T02:29:11.742Z,99.90
2022-11-24T02:31:41.493Z,99.90
2022-11-24T02:34:09.708Z,99.90
2022-11-24T02:36:37.986Z,99.90
2022-11-24T02:39:10.523Z,99.90
2022-11-24T02:41:43.308Z,99.90
2022-11-24T02:44:13.863Z,99.90
2022-11-24T02:46:41.980Z,99.90
2022-11-24T02:49:10.469Z,99.90
2022-11-24T02:51:38.541Z,99.90
2022-11-24T02:54:06.623Z,99.90
2022-11-24T02:56:34.621Z,99.90
2022-11-24T02:59:04.025Z,99.90
2022-11-24T03:01:32.103Z,99.90
2022-11-24T03:04:00.800Z,99.90
2022-11-24T03:06:28.846Z,99.90
2022-11-24T03:08:57.147Z,99.90
2022-11-24T03:11:25.544Z,99.90
2022-11-24T03:13:54.102Z,99.90
2022-11-24T03:16:23.794Z,99.90
2022-11-24T03:18:52.523Z,99.90
2022-11-24T03:21:20.809Z,99.90
2022-11-24T03:23:48.931Z,99.90
2022-11-24T03:26:19.488Z,99.90
2022-11-24T03:28:47.675Z,99.90
2022-11-24T03:31:16.194Z,99.90
2022-11-24T03:33:45.824Z,99.90
2022-11-24T03:36:13.689Z,99.90
2022-11-24T03:38:41.735Z,99.90
2022-11-24T03:41:09.788Z,99.90
2022-11-24T03:43:43.209Z,99.90
2022-11-24T03:46:12.841Z,99.90
2022-11-24T03:48:41.418Z,99.90
2022-11-24T03:51:11.847Z,99.90
2022-11-24T03:53:39.934Z,99.90
2022-11-24T03:56:08.363Z,99.90
2022-11-24T03:58:36.437Z,99.90
2022-11-24T04:01:04.611Z,99.90
2022-11-24T04:03:32.662Z,99.90
2022-11-24T04:06:00.828Z,99.90
2022-11-24T04:08:30.295Z,99.90
2022-11-24T04:10:58.131Z,99.90
2022-11-24T04:13:26.153Z,99.90
2022-11-24T04:15:54.507Z,99.90
2022-11-24T04:18:23.328Z,99.90
2022-11-24T04:20:52.825Z,99.90
2022-11-24T04:23:20.748Z,99.90
2022-11-24T04:25:50.257Z,99.90
2022-11-24T04:28:18.346Z,99.90
2022-11-24T04:30:46.360Z,99.90
2022-11-24T04:33:15.396Z,99.90
2022-11-24T04:35:43.456Z,99.90
2022-11-24T04:38:11.566Z,99.90
2022-11-24T04:40:39.614Z,99.90
2022-11-24T04:43:10.402Z,99.90
2022-11-24T04:45:38.940Z,99.90
2022-11-24T04:48:07.419Z,99.90
2022-11-24T04:50:35.526Z,99.90
2022-11-24T04:53:03.596Z,99.90
2022-11-24T04:55:31.718Z,99.90
2022-11-24T04:58:00.052Z,99.90
2022-11-24T05:00:29.534Z,99.90
2022-11-24T05:02:57.584Z,99.90
2022-11-24T05:05:25.640Z,99.90
2022-11-24T05:07:53.779Z,99.90
2022-11-24T05:10:36.866Z,99.90
2022-11-24T05:13:06.558Z,99.90
2022-11-24T05:15:37.840Z,99.90
2022-11-24T05:18:06.984Z,99.90
2022-11-24T05:20:35.640Z,99.90
2022-11-24T05:23:04.879Z,99.90
2022-11-24T05:25:33.317Z,99.90
2022-11-24T05:28:02.448Z,99.90
2022-11-24T05:30:32.075Z,99.90
2022-11-24T05:33:06.658Z,99.90
2022-11-24T05:35:36.395Z,99.90
2022-11-24T05:38:05.649Z,99.90
2022-11-24T05:40:33.712Z,99.90
2022-11-24T05:43:01.848Z,99.90
2022-11-24T05:45:30.163Z,99.90
2022-11-24T05:48:07.543Z,99.90
2022-11-24T05:50:36.643Z,99.90
2022-11-24T05:53:04.864Z,99.90
2022-11-24T05:55:33.604Z,99.90
2022-11-24T05:58:03.087Z,99.90
2022-11-24T06:00:31.296Z,99.90
2022-11-24T06:02:59.925Z,99.90
2022-11-24T06:05:30.383Z,99.90
2022-11-24T06:08:00.254Z,99.90
2022-11-24T06:10:29.366Z,99.90
2022-11-24T06:12:57.446Z,99.90
2022-11-24T06:15:25.498Z,99.90
2022-11-24T06:17:56.947Z,99.90
2022-11-24T06:20:31.172Z,99.90
2022-11-24T06:23:02.456Z,99.90
2022-11-24T06:25:30.887Z,99.90
2022-11-24T06:27:58.938Z,99.90
2022-11-24T06:30:27.169Z,99.90
2022-11-24T06:32:56.732Z,99.90
2022-11-24T06:35:24.582Z,99.90
2022-11-24T06:37:52.586Z,99.90
2022-11-24T06:40:22.179Z,99.90
2022-11-24T06:42:53.219Z,99.90
2022-11-24T06:45:21.598Z,99.90
2022-11-24T06:47:49.907Z,99.90
2022-11-24T06:50:18.373Z,99.90
2022-11-24T06:52:46.438Z,99.90
2022-11-24T06:55:15.196Z,99.90
2022-11-24T06:57:44.651Z,99.90
2022-11-24T07:00:13.698Z,99.90
2022-11-24T07:02:45.842Z,99.90
2022-11-24T07:05:14.457Z,99.90
2022-11-24T07:07:42.603Z,99.90
2022-11-24T07:10:11.223Z,99.90
2022-11-24T07:12:39.664Z,99.90
2022-11-24T07:15:10.440Z,99.90
2022-11-24T07:17:39.210Z,99.90
2022-11-24T07:20:08.724Z,99.90
2022-11-24T07:22:36.581Z,99.90
2022-11-24T07:25:07.444Z,99.90
2022-11-24T07:27:35.730Z,99.90
2022-11-24T07:30:04.341Z,99.90
2022-11-24T07:32:34.002Z,99.90
2022-11-24T07:35:02.387Z,99.90
2022-11-24T07:37:31.730Z,99.90
2022-11-24T07:39:59.902Z,99.90
2022-11-24T07:42:28.739Z,99.90
2022-11-24T07:44:56.815Z,99.90
2022-11-24T07:47:24.924Z,99.90
2022-11-24T07:49:54.517Z,99.90
2022-11-24T07:52:23.368Z,99.90
2022-11-24T07:54:51.435Z,99.90
2022-11-24T07:57:19.808Z,99.90
2022-11-24T07:59:47.889Z,99.90
2022-11-24T08:02:15.988Z,99.90
2022-11-24T08:04:44.019Z,99.90
2022-11-24T08:07:13.527Z,99.90
2022-11-24T08:09:41.476Z,99.90
2022-11-24T08:12:09.589Z,99.90
2022-11-24T08:14:37.676Z,99.90
2022-11-24T08:17:05.823Z,99.90
2022-11-24T08:19:34.818Z,99.90
2022-11-24T08:22:02.956Z,99.90
2022-11-24T08:24:32.547Z,99.90
2022-11-24T08:27:00.960Z,99.90
2022-11-24T08:29:29.842Z,99.90
2022-11-24T08:31:59.544Z,99.90
2022-11-24T08:34:27.715Z,99.90
2022-11-24T08:36:55.821Z,99.90
2022-11-24T08:39:23.998Z,99.90
2022-11-24T08:41:53.469Z,99.90
2022-11-24T08:44:21.593Z,99.90
2022-11-24T08:46:50.301Z,99.90
2022-11-24T08:49:18.966Z,99.90
2022-11-24T08:51:48.579Z,99.90
2022-11-24T08:54:18.621Z,99.90
2022-11-24T08:56:47.105Z,99.90
2022-11-24T08:59:16.804Z,99.90
2022-11-24T09:01:45.066Z,99.90
2022-11-24T09:04:13.240Z,99.90
2022-11-24T09:06:41.347Z,99.90
2022-11-24T09:09:10.988Z,99.90
2022-11-24T09:11:38.852Z,99.90
2022-11-24T09:14:07.750Z,99.90
2022-11-24T09:16:37.857Z,99.90
2022-11-24T09:19:07.995Z,99.90
2022-11-24T09:21:39.025Z,99.90
2022-11-24T09:24:08.413Z,99.90
2022-11-24T09:26:41.877Z,99.90
2022-11-24T09:29:14.257Z,99.90
2022-11-24T09:31:43.693Z,99.90
2022-11-24T09:34:15.122Z,99.60
2022-11-24T09:36:43.314Z,98.70
2022-11-24T09:39:12.139Z,96.20
2022-11-24T09:41:51.351Z,92.10
2022-11-24T09:44:40.332Z,86.20
2022-11-24T09:47:21.743Z,84.40
2022-11-24T09:49:55.617Z,84.90
2022-11-24T09:52:38.609Z,87.90
2022-11-24T09:55:20.575Z,90.50
2022-11-24T09:58:02.907Z,83.90
2022-11-24T10:00:31.407Z,79.00
2022-11-24T10:03:01.220Z,74.20
2022-11-24T10:05:33.836Z,75.00
2022-11-24T10:08:12.175Z,70.30
2022-11-24T10:10:51.381Z,68.50
2022-11-24T10:13:36.698Z,66.70
2022-11-24T10:16:13.730Z,52.60
2022-11-24T10:18:58.416Z,54.20
2022-11-24T10:21:45.976Z,55.80
2022-11-24T10:24:30.264Z,52.00
2022-11-24T10:27:02.977Z,44.30
2022-11-24T10:29:35.683Z,39.70
2022-11-24T10:32:08.956Z,22.30
2022-11-24T10:34:42.713Z,18.70
2022-11-24T10:37:17.987Z,24.10
2022-11-24T10:39:59.847Z,8.60
2022-11-24T10:42:30.536Z,10.00
2022-11-24T10:45:02.414Z,10.90
2022-11-24T10:47:31.745Z,7.00
2022-11-24T10:50:04.351Z,9.80
2022-11-24T10:52:41.484Z,10.30
2022-11-24T10:55:10.341Z,6.60
2022-11-24T10:57:39.760Z,7.30
2022-11-24T11:00:32.819Z,13.90
2022-11-24T11:03:18.964Z,2.20
2022-11-24T11:05:53.155Z,6.10
2022-11-24T11:08:24.489Z,1.00
2022-11-24T11:11:12.877Z,2.40
2022-11-24T11:13:52.062Z,8.00
2022-11-24T11:16:32.201Z,1.00
2022-11-24T11:19:15.689Z,1.00
2022-11-24T11:22:01.247Z,1.00
2022-11-24T11:24:30.068Z,7.80
2022-11-24T11:27:01.999Z,19.50
2022-11-24T11:35:14.085Z,1.00
2022-11-24T11:37:45.335Z,1.00
2022-11-24T11:40:18.411Z,1.00
2022-11-24T11:43:05.758Z,1.00
2022-11-24T11:45:37.362Z,1.00
2022-11-24T11:48:26.375Z,1.00
2022-11-24T11:53:55.467Z,1.00
2022-11-24T11:56:27.053Z,1.00
2022-11-24T11:59:36.612Z,1.00
2022-11-24T12:02:49.955Z,1.00
2022-11-24T12:05:30.985Z,1.00
2022-11-24T12:08:15.993Z,1.00
2022-11-24T12:10:55.461Z,1.00
2022-11-24T12:13:49.418Z,1.00
2022-11-24T12:16:31.121Z,1.00
2022-11-24T12:19:16.751Z,1.00
2022-11-24T12:21:51.448Z,1.00
2022-11-24T12:24:25.146Z,1.00
2022-11-24T12:26:59.833Z,1.00
2022-11-24T12:29:48.263Z,1.00
2022-11-24T12:32:30.642Z,1.00
2022-11-24T12:35:04.589Z,1.00
2022-11-24T12:37:46.327Z,1.00
2022-11-24T12:40:18.470Z,1.00
2022-11-24T12:43:00.845Z,1.00
2022-11-24T12:45:35.265Z,1.00
2022-11-24T12:48:22.393Z,1.00
2022-11-24T12:50:53.348Z,1.00
2022-11-24T12:53:25.542Z,1.00
2022-11-24T12:55:55.888Z,1.00
2022-11-24T12:58:31.305Z,1.00
2022-11-24T13:01:16.137Z,1.00
2022-11-24T13:03:56.086Z,1.00
2022-11-24T13:06:25.257Z,1.00
2022-11-24T13:08:53.426Z,1.00
2022-11-24T13:11:43.619Z,1.00
2022-11-24T13:14:19.374Z,1.00
2022-11-24T13:17:31.069Z,1.00
2022-11-24T13:20:22.949Z,1.00
2022-11-24T13:22:53.865Z,1.00
2022-11-24T13:25:24.425Z,1.00
2022-11-24T13:27:55.420Z,1.00
2022-11-24T13:30:59.797Z,1.00
2022-11-24T13:33:37.070Z,1.00
2022-11-24T13:36:33.846Z,1.00
2022-11-24T13:39:03.937Z,1.00
2022-11-24T13:42:43.047Z,1.00
2022-11-24T13:45:00.160Z,1.00
2022-11-24T13:47:37.339Z,1.00
2022-11-24T13:50:10.000Z,1.00
2022-11-24T13:52:43.032Z,1.00
2022-11-24T13:55:34.818Z,1.00
2022-11-24T13:58:25.500Z,1.00
2022-11-24T14:01:15.679Z,1.00
2022-11-24T14:07:07.024Z,1.00
2022-11-24T14:09:40.922Z,1.00
2022-11-24T14:12:15.259Z,1.00
2022-11-24T14:14:45.487Z,1.00
2022-11-24T14:17:19.449Z,1.00
2022-11-24T14:19:49.390Z,1.00
2022-11-24T14:22:21.911Z,1.00
2022-11-24T14:24:55.619Z,1.00
2022-11-24T14:27:30.403Z,1.00
2022-11-24T14:30:01.224Z,1.00
2022-11-24T14:32:29.399Z,4.00
2022-11-24T14:34:57.880Z,12.80
2022-11-24T14:37:27.519Z,19.20
2022-11-24T14:39:55.418Z,28.90
2022-11-24T14:42:27.333Z,31.20
2022-11-24T14:44:58.783Z,31.90
2022-11-24T14:47:31.615Z,36.70
2022-11-24T14:50:10.692Z,40.30
2022-11-24T14:52:47.090Z,42.40
2022-11-24T14:55:29.030Z,43.20
2022-11-24T14:57:57.680Z,47.60
2022-11-24T15:00:31.732Z,49.90
2022-11-24T15:03:16.040Z,52.50
2022-11-24T15:05:55.869Z,53.10
2022-11-24T15:08:26.784Z,54.60
2022-11-24T15:11:01.117Z,52.00
2022-11-24T15:13:32.086Z,52.20
2022-11-24T15:16:03.724Z,49.40
2022-11-24T15:18:38.537Z,49.70
2022-11-24T15:21:07.197Z,48.20
2022-11-24T15:23:37.621Z,44.80
2022-11-24T15:26:31.269Z,43.20
2022-11-24T15:29:01.336Z,45.80
2022-11-24T15:31:29.817Z,48.30
2022-11-24T15:33:57.945Z,52.10
2022-11-24T15:36:25.987Z,57.30
2022-11-24T15:38:55.461Z,62.10
2022-11-24T15:41:27.799Z,64.90
2022-11-24T15:43:59.222Z,65.30
2022-11-24T15:46:27.926Z,64.60
2022-11-24T15:48:57.192Z,67.10
2022-11-24T15:51:27.106Z,70.30
2022-11-24T15:54:01.069Z,73.10
2022-11-24T15:56:33.094Z,74.20
2022-11-24T15:59:01.484Z,72.80
2022-11-24T16:01:33.313Z,74.30
2022-11-24T16:04:01.503Z,74.50
2022-11-24T16:06:29.741Z,75.90
2022-11-24T16:08:59.576Z,78.00
2022-11-24T16:11:27.936Z,77.10
2022-11-24T16:13:56.120Z,80.90
2022-11-24T16:16:25.688Z,78.50
2022-11-24T16:18:53.742Z,80.00
2022-11-24T16:21:23.175Z,80.20
2022-11-24T16:23:52.656Z,79.00
2022-11-24T16:26:22.360Z,81.60
2022-11-24T16:28:50.431Z,79.90
2022-11-24T16:31:19.703Z,78.90
2022-11-24T16:33:48.073Z,80.00
2022-11-24T16:36:16.409Z,82.30
2022-11-24T16:38:45.242Z,83.30
2022-11-24T16:41:13.483Z,83.80
2022-11-24T16:43:43.896Z,86.30
2022-11-24T16:46:20.234Z,88.10
2022-11-24T16:48:50.243Z,90.20
2022-11-24T16:51:20.352Z,90.30
2022-11-24T16:53:48.547Z,90.40
2022-11-24T16:56:17.431Z,91.60
2022-11-24T16:58:47.006Z,92.10
2022-11-24T17:01:15.135Z,92.40
2022-11-24T17:03:43.300Z,92.70
2022-11-24T17:06:15.653Z,91.90
2022-11-24T17:08:44.690Z,90.60
2022-11-24T17:11:14.533Z,87.10
2022-11-24T17:13:43.355Z,84.30
2022-11-24T17:16:14.715Z,82.00
2022-11-24T17:18:43.126Z,80.00
2022-11-24T17:21:13.740Z,84.60
2022-11-24T17:23:42.128Z,87.40
2022-11-24T17:26:12.942Z,90.20
2022-11-24T17:28:41.680Z,91.60
2022-11-24T17:31:17.641Z,93.30
2022-11-24T17:33:45.866Z,93.40
2022-11-24T17:36:14.109Z,94.10
2022-11-24T17:38:42.305Z,94.50
2022-11-24T17:41:10.579Z,94.40
2022-11-24T17:43:38.940Z,95.20
2022-11-24T17:46:07.624Z,95.60
2022-11-24T17:48:37.609Z,95.90
2022-11-24T17:51:08.308Z,96.10
2022-11-24T17:53:39.072Z,96.60
2022-11-24T17:56:08.147Z,97.50
2022-11-24T17:58:42.567Z,97.10
2022-11-24T18:01:11.717Z,97.80
2022-11-24T18:03:41.970Z,97.20
2022-11-24T18:06:11.915Z,96.70
2022-11-24T18:08:41.455Z,95.60
2022-11-24T18:11:10.509Z,95.10
2022-11-24T18:13:56.502Z,94.70
2022-11-24T18:16:28.077Z,94.20
2022-11-24T18:19:07.924Z,95.00
2022-11-24T18:21:38.163Z,94.10
2022-11-24T18:24:06.186Z,93.90
2022-11-24T18:26:34.393Z,93.70
2022-11-24T18:29:02.773Z,93.80
2022-11-24T18:31:31.242Z,93.10
2022-11-24T18:34:02.681Z,93.20
2022-11-24T18:36:31.046Z,92.80
2022-11-24T18:39:00.991Z,92.60
2022-11-24T18:41:29.149Z,92.00
2022-11-24T18:43:57.268Z,91.60
2022-11-24T18:46:25.898Z,91.80
2022-11-24T18:48:54.134Z,90.50
2022-11-24T18:51:23.640Z,88.70
2022-11-24T18:53:53.345Z,87.70
2022-11-24T18:56:21.571Z,85.90
2022-11-24T18:58:52.910Z,84.10
2022-11-24T19:01:22.988Z,83.50
2022-11-24T19:03:52.504Z,80.80
2022-11-24T19:06:20.991Z,79.00
2022-11-24T19:08:53.475Z,80.70
2022-11-24T19:11:23.668Z,76.10
2022-11-24T19:13:52.208Z,77.70
2022-11-24T19:16:21.661Z,73.90
2022-11-24T19:18:54.103Z,72.20
2022-11-24T19:21:23.749Z,72.90
2022-11-24T19:23:53.263Z,71.50
2022-11-24T19:26:21.427Z,67.80
2022-11-24T19:28:49.622Z,69.80
2022-11-24T19:31:19.656Z,67.60
2022-11-24T19:33:48.495Z,62.60
2022-11-24T19:36:18.272Z,59.20
2022-11-24T19:38:53.922Z,60.20
2022-11-24T19:41:24.597Z,61.90
2022-11-24T19:43:53.418Z,57.40
2022-11-24T19:46:23.169Z,58.30
2022-11-24T19:48:54.208Z,60.40
2022-11-24T19:51:23.952Z,61.90
2022-11-24T19:53:54.115Z,60.60
2022-11-24T19:56:24.620Z,58.70
2022-11-24T19:58:54.595Z,55.40
2022-11-24T20:01:25.176Z,53.50
2022-11-24T20:03:58.784Z,58.20
2022-11-24T20:06:28.287Z,57.90
2022-11-24T20:08:58.038Z,58.40
2022-11-24T20:11:26.633Z,56.30
2022-11-24T20:13:54.728Z,52.80
2022-11-24T20:16:26.549Z,53.10
2022-11-24T20:18:56.560Z,56.20
2022-11-24T20:21:28.597Z,55.70
2022-11-24T20:24:01.175Z,57.80
2022-11-24T20:26:31.533Z,57.10
2022-11-24T20:29:01.252Z,55.40
2022-11-24T20:31:31.819Z,57.30
2022-11-24T20:34:00.885Z,55.50
2022-11-24T20:36:31.123Z,56.70
2022-11-24T20:39:03.013Z,56.30
2022-11-24T20:41:33.676Z,59.90
2022-11-24T20:44:04.981Z,60.60
2022-11-24T20:46:35.386Z,54.70
2022-11-24T20:49:04.512Z,55.30
2022-11-24T20:51:34.682Z,54.70
2022-11-24T20:54:07.894Z,55.90
2022-11-24T20:56:39.806Z,55.30
2022-11-24T20:59:08.383Z,57.10
2022-11-24T21:01:38.863Z,54.60
2022-11-24T21:04:08.760Z,52.50
2022-11-24T21:06:37.639Z,52.70
2022-11-24T21:09:08.658Z,48.00
2022-11-24T21:11:37.252Z,46.70
2022-11-24T21:14:06.002Z,46.20
2022-11-24T21:16:35.707Z,47.80
2022-11-24T21:19:06.430Z,50.80
2022-11-24T21:21:36.201Z,51.90
2022-11-24T21:24:07.427Z,51.00
2022-11-24T21:26:37.754Z,50.10
2022-11-24T21:29:06.851Z,51.60
2022-11-24T21:31:36.530Z,50.30
2022-11-24T21:34:05.401Z,47.30
2022-11-24T21:36:35.031Z,49.20
2022-11-24T21:39:04.428Z,49.90
2022-11-24T21:41:35.117Z,51.60
2022-11-24T21:44:04.381Z,49.80
2022-11-24T21:46:40.470Z,49.60
2022-11-24T21:49:10.534Z,53.60
2022-11-24T21:51:38.623Z,53.10
2022-11-24T21:54:07.347Z,53.20
2022-11-24T21:56:36.801Z,56.50
2022-11-24T21:59:05.317Z,58.80
2022-11-24T22:01:33.476Z,58.90
2022-11-24T22:04:01.618Z,60.60
2022-11-24T22:06:34.264Z,62.70
2022-11-24T22:09:02.355Z,62.90
2022-11-24T22:11:30.875Z,63.60
2022-11-24T22:14:00.259Z,64.90
2022-11-24T22:16:28.909Z,59.20
2022-11-24T22:18:56.996Z,56.20
2022-11-24T22:21:30.029Z,53.10
2022-11-24T22:23:58.623Z,55.40
2022-11-24T22:26:28.139Z,53.10
2022-11-24T22:28:57.298Z,48.90
2022-11-24T22:31:29.800Z,48.90
2022-11-24T22:33:59.153Z,50.10
2022-11-24T22:36:28.541Z,51.70
2022-11-24T22:38:57.653Z,50.30
2022-11-24T22:41:26.633Z,47.20
2022-11-24T22:43:55.035Z,47.00
2022-11-24T22:46:25.128Z,48.00
2022-11-24T22:48:55.836Z,51.00
2022-11-24T22:51:27.551Z,50.10
2022-11-24T22:53:57.513Z,49.30
2022-11-24T22:56:27.830Z,52.70
2022-11-24T22:58:56.725Z,53.50
2022-11-24T23:01:26.707Z,55.10
2022-11-24T23:03:56.619Z,56.00
2022-11-24T23:06:28.772Z,54.60
2022-11-24T23:08:58.083Z,54.40
2022-11-24T23:11:34.964Z,56.70
2022-11-24T23:14:06.567Z,57.20
2022-11-24T23:16:34.822Z,59.10
2022-11-24T23:19:04.508Z,60.70
2022-11-24T23:21:34.095Z,58.70
2022-11-24T23:24:02.660Z,60.30
2022-11-24T23:26:32.602Z,58.20
2022-11-24T23:29:00.781Z,57.80
2022-11-24T23:31:29.603Z,57.10
2022-11-24T23:33:58.976Z,56.80
2022-11-24T23:36:29.080Z,57.30
2022-11-24T23:38:57.483Z,56.10
2022-11-24T23:41:26.723Z,55.70
2022-11-24T23:43:54.786Z,54.20
2022-11-24T23:46:25.183Z,53.40
2022-11-24T23:48:54.872Z,54.90
2022-11-24T23:51:24.769Z,58.40
2022-11-24T23:53:54.970Z,57.60
2022-11-24T23:56:25.011Z,56.80
2022-11-24T23:58:53.471Z,57.50
